createdAt,value
2018-05-15T00:04:23.473Z,11.04
2018-05-15T00:09:25.933Z,10.93
2018-05-15T00:14:28.440Z,10.90
2018-05-15T00:19:30.922Z,10.87
2018-05-15T00:24:33.465Z,10.82
2018-05-15T00:29:35.963Z,10.73
2018-05-15T00:34:38.503Z,10.63
2018-05-15T00:39:41.018Z,10.61
2018-05-15T00:44:43.506Z,10.61
2018-05-15T00:49:45.997Z,10.52
2018-05-15T00:54:48.499Z,10.50
2018-05-15T00:59:50.999Z,10.49
2018-05-15T01:04:53.609Z,10.47
2018-05-15T01:09:56.605Z,10.38
2018-05-15T01:14:59.116Z,10.37
2018-05-15T01:20:01.590Z,10.38
2018-05-15T01:25:04.084Z,10.24
2018-05-15T01:30:06.566Z,10.18
2018-05-15T01:35:09.049Z,10.17
2018-05-15T01:40:11.542Z,10.10
2018-05-15T01:45:14.343Z,10.13
2018-05-15T01:50:17.477Z,10.17
2018-05-15T01:55:20.019Z,10.07
2018-05-15T02:00:22.524Z,10.02
2018-05-15T02:05:25.070Z,9.95
2018-05-15T02:10:27.619Z,9.98
2018-05-15T02:15:30.140Z,9.94
2018-05-15T02:20:32.688Z,9.82
2018-05-15T02:25:35.185Z,9.74
2018-05-15T02:30:37.695Z,9.68
2018-05-15T02:35:40.177Z,9.72
2018-05-15T02:40:42.759Z,9.81
2018-05-15T02:45:46.905Z,9.94
2018-05-15T02:50:49.646Z,10.04
2018-05-15T02:55:52.168Z,10.00
2018-05-15T03:00:54.798Z,9.86
2018-05-15T03:05:58.015Z,9.77
2018-05-15T03:11:02.836Z,9.73
2018-05-15T03:16:05.351Z,9.78
2018-05-15T03:21:07.855Z,9.73
2018-05-15T03:26:10.371Z,9.65
2018-05-15T03:31:13.915Z,9.71
2018-05-15T03:36:20.093Z,9.87
2018-05-15T03:41:23.212Z,10.03
2018-05-15T03:46:25.736Z,10.15
2018-05-15T03:56:33.057Z,10.48
2018-05-15T04:01:47.745Z,10.91
2018-05-15T04:07:02.052Z,11.58
2018-05-15T04:12:04.564Z,12.11
2018-05-15T04:17:07.986Z,12.44
2018-05-15T04:22:10.514Z,12.67
2018-05-15T04:27:12.981Z,13.14
2018-05-15T04:32:15.480Z,17.28
2018-05-15T04:37:18.087Z,21.02
2018-05-15T04:42:20.571Z,22.52
2018-05-15T04:47:23.105Z,24.99
2018-05-15T04:52:25.571Z,26.06
2018-05-15T04:57:28.084Z,26.65
2018-05-15T05:02:30.622Z,26.40
2018-05-15T05:07:34.510Z,27.93
2018-05-15T05:12:37.027Z,28.85
2018-05-15T05:17:39.532Z,27.85
2018-05-15T05:22:42.048Z,27.21
2018-05-15T05:27:44.523Z,27.27
2018-05-15T05:32:47.090Z,26.83
2018-05-15T05:37:49.707Z,27.48
2018-05-15T05:42:52.366Z,28.26
2018-05-15T05:47:55.375Z,28.29
2018-05-15T05:52:58.000Z,27.37
2018-05-15T05:58:00.815Z,29.32
2018-05-15T06:03:03.377Z,29.23
2018-05-15T06:08:05.871Z,28.75
2018-05-15T06:13:08.354Z,29.40
2018-05-15T06:18:10.831Z,29.42
2018-05-15T06:23:13.324Z,29.96
2018-05-15T06:28:15.795Z,31.02
2018-05-15T06:33:18.337Z,30.69
2018-05-15T06:38:20.875Z,30.94
2018-05-15T06:43:23.507Z,32.29
2018-05-15T06:48:26.039Z,32.54
2018-05-15T06:53:28.554Z,32.69
2018-05-15T06:58:31.086Z,33.84
2018-05-15T07:03:33.559Z,33.57
2018-05-15T07:08:36.032Z,31.76
2018-05-15T07:13:38.558Z,33.81
2018-05-15T07:18:41.024Z,33.49
2018-05-15T07:23:43.515Z,31.92
2018-05-15T07:28:46.070Z,29.91
2018-05-15T07:33:48.684Z,29.01
2018-05-15T07:38:51.299Z,28.52
2018-05-15T07:43:53.842Z,28.56
2018-05-15T07:48:56.415Z,29.45
2018-05-15T07:53:58.955Z,28.15
2018-05-15T07:59:01.447Z,30.14
2018-05-15T08:04:03.937Z,26.50
2018-05-15T08:09:06.473Z,26.87
2018-05-15T08:14:08.956Z,27.47
2018-05-15T08:19:11.459Z,30.04
2018-05-15T08:24:13.963Z,28.25
2018-05-15T08:29:16.505Z,29.28
2018-05-15T08:34:19.107Z,30.98
2018-05-15T08:39:21.663Z,30.41
2018-05-15T08:44:24.216Z,28.76
2018-05-15T08:49:26.727Z,26.95
2018-05-15T08:54:29.247Z,29.14
2018-05-15T08:59:31.787Z,29.98
2018-05-15T09:04:34.277Z,29.82
2018-05-15T09:09:36.787Z,29.73
2018-05-15T09:14:39.323Z,28.83
2018-05-15T09:19:41.812Z,28.44
2018-05-15T09:24:44.375Z,30.25
2018-05-15T09:29:46.844Z,30.77
2018-05-15T09:34:49.366Z,31.12
2018-05-15T09:39:51.969Z,30.27
2018-05-15T09:44:54.488Z,27.17
2018-05-15T09:49:57.929Z,26.02
2018-05-15T09:55:00.424Z,26.48
2018-05-15T10:00:02.926Z,25.12
2018-05-15T10:05:05.400Z,24.85
2018-05-15T10:10:07.908Z,24.55
2018-05-15T10:15:10.403Z,24.71
2018-05-15T10:20:12.914Z,24.70
2018-05-15T10:25:15.437Z,23.96
2018-05-15T10:30:18.032Z,24.05
2018-05-15T10:35:20.601Z,23.68
2018-05-15T10:40:23.458Z,23.50
2018-05-15T10:45:25.963Z,23.53
2018-05-15T10:50:28.499Z,25.26
2018-05-15T10:55:30.987Z,25.56
2018-05-15T11:00:33.463Z,24.53
2018-05-15T11:05:35.976Z,24.11
2018-05-15T11:10:38.475Z,24.33
2018-05-15T11:15:40.942Z,24.33
2018-05-15T11:20:55.188Z,24.53
2018-05-15T11:25:57.873Z,24.36
2018-05-15T11:31:00.433Z,24.14
2018-05-15T11:36:03.083Z,24.39
2018-05-15T11:41:05.427Z,24.58
2018-05-15T11:46:07.911Z,25.02
2018-05-15T11:51:11.065Z,24.75
2018-05-15T11:56:12.862Z,24.34
2018-05-15T12:01:15.380Z,24.91
2018-05-15T12:06:17.895Z,24.60
2018-05-15T12:11:20.739Z,24.37
2018-05-15T12:16:23.587Z,24.47
2018-05-15T12:21:26.142Z,24.24
2018-05-15T12:26:28.625Z,24.77
2018-05-15T12:31:31.401Z,25.24
2018-05-15T12:36:33.955Z,24.49
2018-05-15T12:41:36.591Z,24.17
2018-05-15T12:46:39.091Z,24.33
2018-05-15T12:51:41.546Z,24.54
2018-05-15T12:56:44.121Z,24.31
2018-05-15T13:01:46.713Z,23.78
2018-05-15T13:06:49.115Z,23.90
2018-05-15T13:11:51.636Z,24.14
2018-05-15T13:16:54.190Z,23.84
2018-05-15T13:21:56.693Z,24.11
2018-05-15T13:26:59.198Z,24.38
2018-05-15T13:32:01.666Z,24.56
2018-05-15T13:37:04.150Z,24.27
2018-05-15T13:42:06.647Z,24.12
2018-05-15T13:47:09.156Z,22.46
2018-05-15T13:52:11.772Z,23.28
2018-05-15T13:57:18.379Z,22.87
2018-05-15T14:02:21.002Z,22.93
2018-05-15T14:07:23.463Z,22.55
2018-05-15T14:12:27.320Z,22.90
2018-05-15T14:17:29.880Z,22.42
2018-05-15T14:22:32.398Z,22.46
2018-05-15T14:27:34.869Z,22.37
2018-05-15T14:32:37.373Z,22.12
2018-05-15T14:37:40.020Z,21.68
2018-05-15T14:42:54.325Z,20.82
2018-05-15T14:47:57.586Z,20.25
2018-05-15T14:53:00.091Z,19.88
2018-05-15T14:58:02.608Z,18.44
2018-05-15T15:03:05.131Z,16.97
2018-05-15T15:13:27.583Z,15.97
2018-05-15T15:18:30.049Z,14.01
2018-05-15T15:23:32.538Z,13.57
2018-05-15T15:28:35.017Z,13.72
2018-05-15T15:33:37.631Z,13.63
2018-05-15T15:38:40.314Z,13.60
2018-05-15T15:43:43.132Z,13.79
2018-05-15T15:48:45.685Z,13.38
2018-05-15T15:53:48.194Z,13.29
2018-05-15T15:58:51.030Z,12.96
2018-05-15T16:03:53.537Z,12.81
2018-05-15T16:08:56.061Z,12.88
2018-05-15T16:13:58.590Z,13.04
2018-05-15T16:19:01.120Z,13.10
2018-05-15T16:24:03.655Z,13.02
2018-05-15T16:29:06.140Z,13.01
2018-05-15T16:34:08.946Z,13.22
2018-05-15T16:39:11.628Z,13.40
2018-05-15T16:44:14.167Z,13.61
2018-05-15T16:49:16.686Z,13.88
2018-05-15T16:54:19.199Z,13.77
2018-05-15T16:59:21.701Z,13.69
2018-05-15T17:04:24.198Z,13.70
2018-05-15T17:09:26.762Z,13.68
2018-05-15T17:14:29.351Z,13.87
2018-05-15T17:19:31.863Z,13.86
2018-05-15T17:24:34.390Z,13.92
2018-05-15T17:29:37.000Z,13.97
2018-05-15T17:34:41.252Z,13.91
2018-05-15T17:39:44.142Z,13.91
2018-05-15T17:44:46.646Z,13.81
2018-05-15T17:49:49.252Z,13.55
2018-05-15T17:54:51.798Z,13.33
2018-05-15T17:59:54.327Z,13.32
2018-05-15T18:04:56.802Z,13.26
2018-05-15T18:09:59.664Z,13.20
2018-05-15T18:15:02.184Z,13.11
2018-05-15T18:20:04.705Z,13.14
2018-05-15T18:25:07.216Z,13.14
2018-05-15T18:30:09.795Z,13.04
2018-05-15T18:35:12.289Z,13.04
2018-05-15T18:40:14.772Z,12.94
2018-05-15T18:45:17.422Z,13.01
2018-05-15T18:50:19.881Z,13.06
2018-05-15T18:55:22.603Z,13.07
2018-05-15T19:00:25.079Z,13.04
2018-05-15T19:05:27.608Z,12.82
2018-05-15T19:10:30.103Z,12.76
2018-05-15T19:15:35.078Z,12.64
2018-05-15T19:20:59.655Z,12.54
2018-05-15T19:26:20.908Z,12.48
2018-05-15T19:31:27.026Z,12.47
2018-05-15T19:36:35.218Z,12.36
2018-05-15T19:41:49.087Z,12.33
2018-05-15T19:46:59.373Z,12.24
2018-05-15T19:52:04.166Z,12.20
2018-05-15T19:57:07.001Z,12.18
2018-05-15T20:02:09.488Z,12.28
2018-05-15T20:07:12.611Z,12.27
2018-05-15T20:12:15.212Z,12.18
2018-05-15T20:17:18.551Z,12.27
2018-05-15T20:22:21.075Z,12.15
2018-05-15T20:27:23.658Z,12.12
2018-05-15T20:32:26.187Z,12.21
2018-05-15T20:37:28.676Z,12.38
2018-05-15T20:42:31.267Z,12.17
2018-05-15T20:47:33.836Z,12.13
2018-05-15T20:52:36.335Z,12.19
2018-05-15T20:57:38.925Z,12.08
2018-05-15T21:02:41.531Z,12.10
2018-05-15T21:07:44.128Z,12.05
2018-05-15T21:12:46.817Z,11.96
2018-05-15T21:17:49.328Z,11.91
2018-05-15T21:22:51.912Z,11.96
2018-05-15T21:27:54.410Z,11.89
2018-05-15T21:32:57.015Z,11.96
2018-05-15T21:37:59.567Z,11.94
2018-05-15T21:43:02.225Z,12.01
2018-05-15T21:48:04.693Z,11.92
2018-05-15T21:53:07.248Z,11.91
2018-05-15T21:58:10.581Z,11.85
2018-05-15T22:03:13.186Z,11.93
2018-05-15T22:08:15.779Z,11.86
2018-05-15T22:13:30.205Z,11.89
2018-05-15T22:18:44.671Z,11.73
2018-05-15T22:23:46.628Z,11.61
2018-05-15T22:28:49.179Z,11.59
2018-05-15T22:33:51.654Z,11.56
2018-05-15T22:38:54.176Z,11.46
2018-05-15T22:43:56.696Z,11.38
2018-05-15T22:48:59.905Z,11.36
2018-05-15T22:54:02.722Z,11.31
2018-05-15T22:59:05.261Z,11.24
2018-05-15T23:04:07.866Z,11.30
2018-05-15T23:09:10.387Z,11.32
2018-05-15T23:14:12.920Z,11.52
2018-05-15T23:19:15.451Z,11.79
2018-05-15T23:24:17.958Z,11.77
2018-05-15T23:29:20.553Z,11.71
2018-05-15T23:34:22.940Z,11.60
2018-05-15T23:39:25.447Z,11.54
2018-05-15T23:44:27.967Z,11.46
2018-05-15T23:49:30.526Z,11.48
2018-05-15T23:54:33.023Z,11.48
2018-05-15T23:59:35.540Z,11.36
